CheckWX is a tool to help pilots better visualize weather data.  It is not intended as a substitute for an official pre-flight weather briefing.

10:32:19 UTC

KBPG METAR
Big Spring Mc Mahon-Wrinkle Airport
Big Spring, Texas, USA
Current

5 hours ago

KBPG 200535Z AUTO 15006KT 10SM CLR 11/04 A3012 RMK AO2 T01140038
Observed
Apr-20 @ 05:35 UTC
Wind
  • 150° at 6 KTS
Visibility
10 SM
Flight Rules
VFR
Cloud Levels
  • Clear skies
Temperature
11°C / 52°F
Dewpoint
C / 39°F
Humidity
62%
Altimeter
30.12" Hg
Pressure
1020.02 hPa
Previous

5 hours ago

KBPG 200510Z AUTO 15006KT 10SM CLR 12/04 A3012 RMK AO2 T01210038
Observed
Apr-20 @ 05:10 UTC
Wind
  • 150° at 6 KTS
Visibility
10 SM
Flight Rules
VFR
Cloud Levels
  • Clear skies
Temperature
12°C / 54°F
Dewpoint
C / 39°F
Humidity
58%
Altimeter
30.12" Hg
Pressure
1020.02 hPa
Previous

6 hours ago

KBPG 200455Z AUTO 14006KT 10SM CLR 13/04 A3012 RMK AO2 T01250038
Observed
Apr-20 @ 04:55 UTC
Wind
  • 140° at 6 KTS
Visibility
10 SM
Flight Rules
VFR
Cloud Levels
  • Clear skies
Temperature
13°C / 55°F
Dewpoint
C / 39°F
Humidity
55%
Altimeter
30.12" Hg
Pressure
1020.02 hPa